Time;durP1;ratioP1;P1;durP2;ratioP2;P2;SDS_P1;SDS_P2;PMS_P1;PMS_P2;Temp;Humidity;BMP_temperature;BMP_pressure;BME280_temperature;BME280_humidity;BME280_pressure;Samples;Min_cycle;Max_cycle;Signal;HPM_P1;HPM_P2
2023/03/19 00:00:10;;;;;;;6.13;4.00;;;;;;;-145.18;100.00;46672.13;5031553;28;20060;-66
2023/03/19 00:02:36;;;;;;;6.97;4.57;;;;;;;-145.18;100.00;46672.13;5032282;28;20060;-66
2023/03/19 00:05:02;;;;;;;7.50;4.00;;;;;;;-145.18;100.00;46674.06;5032501;28;20687;-67
2023/03/19 00:07:28;;;;;;;6.20;4.30;;;;;;;-145.18;100.00;46668.22;5032300;28;20043;-67
2023/03/19 00:09:53;;;;;;;8.17;4.47;;;;;;;-145.18;100.00;46670.16;5023425;28;20037;-67
2023/03/19 00:12:18;;;;;;;8.33;4.37;;;;;;;-145.18;100.00;46668.22;5012451;28;20069;-67
2023/03/19 00:14:44;;;;;;;8.27;4.20;;;;;;;-145.18;100.00;46664.31;5012536;28;20077;-66
2023/03/19 00:17:10;;;;;;;6.63;3.90;;;;;;;-145.18;100.00;46672.13;5012099;28;20048;-66
2023/03/19 00:19:36;;;;;;;8.43;4.50;;;;;;;-145.18;100.00;46672.13;5012313;28;20034;-66
2023/03/19 00:22:01;;;;;;;8.37;4.60;;;;;;;-145.18;100.00;46668.22;5020081;28;20041;-67
2023/03/19 00:24:27;;;;;;;6.80;4.60;;;;;;;-145.18;100.00;46668.22;5032355;28;20034;-66
2023/03/19 00:26:53;;;;;;;8.67;4.63;;;;;;;-145.18;100.00;46672.13;5031976;28;20812;-66
2023/03/19 00:29:18;;;;;;;9.10;4.60;;;;;;;-145.18;100.00;46662.34;5025955;28;20337;-66
2023/03/19 00:31:44;;;;;;;6.80;4.50;;;;;;;-145.18;100.00;46668.22;5011998;28;20100;-66
2023/03/19 00:34:10;;;;;;;6.83;4.53;;;;;;;-145.18;100.00;46670.16;5019128;28;20038;-67
2023/03/19 00:36:36;;;;;;;11.87;4.90;;;;;;;-145.18;100.00;46666.25;5031641;28;20037;-66
2023/03/19 00:39:02;;;;;;;6.47;4.50;;;;;;;-145.18;100.00;46670.16;5031932;28;20316;-67
2023/03/19 00:41:27;;;;;;;8.03;4.70;;;;;;;-145.18;100.00;46670.16;5031491;28;20041;-66
2023/03/19 00:43:54;;;;;;;7.80;4.87;;;;;;;-145.18;100.00;46662.34;5030870;28;20059;-66
2023/03/19 00:46:20;;;;;;;9.17;4.60;;;;;;;-145.18;100.00;46668.22;5027047;28;20053;-66
2023/03/19 00:48:46;;;;;;;9.03;5.10;;;;;;;-145.18;100.00;46668.22;5031480;28;20375;-67
2023/03/19 00:51:11;;;;;;;6.87;5.00;;;;;;;-145.18;100.00;46666.25;5031754;28;20029;-67
2023/03/19 00:53:41;;;;;;;9.60;6.13;;;;;;;-145.18;100.00;46660.41;5016098;28;20075;-66
2023/03/19 00:56:08;;;;;;;10.93;5.70;;;;;;;-145.18;100.00;46660.41;5011808;28;20038;-67
2023/03/19 00:58:34;;;;;;;9.00;5.27;;;;;;;-145.18;100.00;46666.25;4993544;28;20282;-67
2023/03/19 01:01:00;;;;;;;11.33;5.67;;;;;;;-145.18;100.00;46664.31;4994082;28;20629;-67
2023/03/19 01:03:26;;;;;;;9.10;5.70;;;;;;;-145.18;100.00;46664.31;5011215;28;20129;-67
2023/03/19 01:05:51;;;;;;;8.73;5.90;;;;;;;-145.18;100.00;46664.31;5025944;28;20385;-67
2023/03/19 01:08:18;;;;;;;9.93;5.93;;;;;;;-145.18;100.00;46664.31;5031161;28;20037;-67
2023/03/19 01:10:45;;;;;;;9.00;6.10;;;;;;;-145.18;100.00;46664.31;5030953;28;20030;-67
2023/03/19 01:13:11;;;;;;;10.20;6.03;;;;;;;-145.18;100.00;46662.34;5030622;28;20091;-67
2023/03/19 01:15:42;;;;;;;11.97;6.17;;;;;;;-145.18;100.00;46662.34;5030860;28;20773;-67
2023/03/19 01:18:08;;;;;;;12.23;6.20;;;;;;;-145.18;100.00;46664.31;5015083;28;20326;-67
2023/03/19 01:20:36;;;;;;;9.80;5.83;;;;;;;-145.18;100.00;46666.25;5011207;28;20383;-67
2023/03/19 01:23:03;;;;;;;8.97;5.90;;;;;;;-145.18;100.00;46662.34;5011080;28;20274;-66
2023/03/19 01:25:29;;;;;;;8.87;6.30;;;;;;;-145.18;100.00;46656.50;5011135;28;20314;-66
2023/03/19 01:27:54;;;;;;;10.83;6.83;;;;;;;-145.18;100.00;46662.34;5010746;28;20268;-66
2023/03/19 01:30:20;;;;;;;9.80;6.40;;;;;;;-145.18;100.00;46658.44;5030555;28;20277;-66
2023/03/19 01:32:45;;;;;;;9.83;6.47;;;;;;;-145.18;100.00;46662.34;5030450;28;20039;-66
2023/03/19 01:35:11;;;;;;;8.93;6.60;;;;;;;-145.18;100.00;46656.50;5030838;28;20057;-66
2023/03/19 01:37:37;;;;;;;8.70;6.80;;;;;;;-145.18;100.00;46656.50;5030090;28;20047;-66
2023/03/19 01:40:04;;;;;;;12.20;6.93;;;;;;;-145.18;100.00;46662.34;5027889;28;20497;-67
2023/03/19 01:42:30;;;;;;;8.90;6.83;;;;;;;-145.18;100.00;46660.41;5010714;28;20091;-66
2023/03/19 01:44:56;;;;;;;13.13;7.23;;;;;;;-145.18;100.00;46660.41;5010305;28;20279;-67
2023/03/19 01:47:37;;;;;;;13.03;7.37;;;;;;;-145.18;100.00;46650.63;4995340;28;20298;-67
2023/03/19 01:50:03;;;;;;;11.40;7.30;;;;;;;-145.18;100.00;46658.44;5030910;28;20029;-66
2023/03/19 01:52:33;;;;;;;11.80;7.07;;;;;;;-145.18;100.00;46660.41;5022982;28;20267;-67
2023/03/19 01:55:01;;;;;;;11.70;6.80;;;;;;;-145.18;100.00;46654.53;5010831;28;20267;-67
2023/03/19 01:57:28;;;;;;;13.27;7.23;;;;;;;-145.18;100.00;46658.44;5010378;28;20280;-66
2023/03/19 01:59:56;;;;;;;10.23;7.30;;;;;;;-145.18;100.00;46658.44;5010536;28;20306;-67
2023/03/19 02:02:24;;;;;;;11.30;6.87;;;;;;;-145.18;100.00;46660.41;5552543;22;20385;-67
2023/03/19 02:04:55;;;;;;;11.50;7.80;;;;;;;-145.18;100.00;46660.41;5028909;28;20830;-67
2023/03/19 02:07:21;;;;;;;12.57;8.07;;;;;;;-145.18;100.00;46660.41;5015143;28;20287;-67
2023/03/19 02:09:47;;;;;;;13.10;7.93;;;;;;;-145.18;100.00;46660.41;5010131;28;20420;-67
2023/03/19 02:12:13;;;;;;;12.20;8.00;;;;;;;-145.18;100.00;46654.53;5014345;28;20550;-67
2023/03/19 02:14:39;;;;;;;15.33;9.50;;;;;;;-145.18;100.00;46652.59;5029020;28;20294;-67
2023/03/19 02:17:05;;;;;;;14.77;7.93;;;;;;;-145.18;100.00;46656.50;5028206;28;20659;-67
2023/03/19 02:19:48;;;;;;;13.77;8.27;;;;;;;-145.18;100.00;46660.41;5022189;28;20054;-67
2023/03/19 02:22:18;;;;;;;9.83;7.80;;;;;;;-145.18;100.00;46658.44;5010741;28;20263;-67
2023/03/19 02:25:13;;;;;;;14.87;7.97;;;;;;;-145.18;100.00;46662.34;5016652;28;20272;-67
2023/03/19 02:27:38;;;;;;;16.17;9.57;;;;;;;-145.18;100.00;46656.50;5032660;28;20270;-67
2023/03/19 02:30:22;;;;;;;15.23;9.63;;;;;;;-145.18;100.00;46658.44;5036942;28;20025;-67
2023/03/19 02:32:48;;;;;;;12.00;8.63;;;;;;;-145.18;100.00;46658.44;5036284;28;20052;-67
2023/03/19 02:35:13;;;;;;;14.47;9.17;;;;;;;-145.18;100.00;46652.59;5051262;28;20720;-67
2023/03/19 02:37:38;;;;;;;14.63;8.20;;;;;;;-145.18;100.00;46656.50;5018896;28;20064;-67
2023/03/19 02:40:11;;;;;;;13.63;9.50;;;;;;;-145.18;100.00;46654.53;5036805;28;20053;-67
2023/03/19 02:42:37;;;;;;;13.77;9.63;;;;;;;-145.18;100.00;46650.63;5044356;28;20539;-67
2023/03/19 02:45:02;;;;;;;13.37;9.47;;;;;;;-145.18;100.00;46656.50;5037411;28;20369;-67
2023/03/19 02:47:28;;;;;;;13.90;9.57;;;;;;;-145.18;100.00;46654.53;5036399;28;20037;-67
2023/03/19 02:49:53;;;;;;;12.93;9.30;;;;;;;-145.18;100.00;46654.53;5040549;28;20163;-67
2023/03/19 02:52:20;;;;;;;12.83;9.53;;;;;;;-145.18;100.00;46654.53;5047348;28;20025;-67
2023/03/19 02:54:45;;;;;;;15.20;9.23;;;;;;;-145.18;100.00;46654.53;5056376;28;20538;-68
2023/03/19 02:57:11;;;;;;;13.67;9.37;;;;;;;-145.18;100.00;46652.59;5038684;28;20298;-68
2023/03/19 02:59:37;;;;;;;16.93;9.97;;;;;;;-145.18;100.00;46654.53;5036359;28;20029;-67
2023/03/19 03:02:03;;;;;;;15.03;9.73;;;;;;;-145.18;100.00;46654.53;5044442;28;20278;-67
2023/03/19 03:04:29;;;;;;;16.53;10.10;;;;;;;-145.18;100.00;46660.41;5056637;28;20636;-67
2023/03/19 03:06:55;;;;;;;17.13;10.07;;;;;;;-145.18;100.00;46654.53;5055634;28;20100;-67
2023/03/19 03:09:21;;;;;;;17.43;10.47;;;;;;;-145.18;100.00;46654.53;5056146;28;20856;-67
2023/03/19 03:11:47;;;;;;;19.07;10.33;;;;;;;-145.18;100.00;46654.53;5056235;28;20040;-67
2023/03/19 03:14:12;;;;;;;14.03;10.33;;;;;;;-145.18;100.00;46656.50;5056046;28;20365;-67
2023/03/19 03:16:37;;;;;;;17.73;10.13;;;;;;;-145.18;100.00;46654.53;5056197;28;20048;-67
2023/03/19 03:19:04;;;;;;;15.73;9.93;;;;;;;-145.18;100.00;46656.50;5055690;28;20512;-67
2023/03/19 03:21:30;;;;;;;20.90;11.20;;;;;;;-145.18;100.00;46654.53;5056298;28;20060;-68
2023/03/19 03:23:55;;;;;;;17.23;11.63;;;;;;;-145.18;100.00;46654.53;5055472;28;20734;-67
2023/03/19 03:26:21;;;;;;;15.17;10.77;;;;;;;-145.18;100.00;46654.53;5056064;28;20647;-67
2023/03/19 03:28:46;;;;;;;15.77;11.30;;;;;;;-145.18;100.00;46656.50;5055635;28;20137;-67
2023/03/19 03:31:12;;;;;;;19.37;12.10;;;;;;;-145.18;100.00;46654.53;5056230;28;20036;-68
2023/03/19 03:33:38;;;;;;;17.77;11.63;;;;;;;-145.18;100.00;46652.59;5055521;28;20060;-68
2023/03/19 03:36:03;;;;;;;14.03;10.27;;;;;;;-145.18;100.00;46650.63;5052475;28;20055;-68
2023/03/19 03:38:31;;;;;;;16.90;11.43;;;;;;;-145.18;100.00;46654.53;5052483;28;20040;-67
2023/03/19 03:40:56;;;;;;;15.73;11.20;;;;;;;-145.18;100.00;46652.59;5052843;28;20523;-68
2023/03/19 03:43:22;;;;;;;16.50;11.83;;;;;;;-145.18;100.00;46656.50;5052533;28;20274;-67
2023/03/19 03:45:47;;;;;;;16.30;11.00;;;;;;;-145.18;100.00;46654.53;5052493;28;20037;-67
2023/03/19 03:48:14;;;;;;;15.67;10.80;;;;;;;-145.18;100.00;46654.53;5034703;28;20040;-67
2023/03/19 03:50:39;;;;;;;17.37;11.87;;;;;;;-145.18;100.00;46658.44;5052794;28;20064;-67
2023/03/19 03:53:05;;;;;;;17.07;12.00;;;;;;;-145.18;100.00;46658.44;5052308;28;20368;-67
2023/03/19 03:55:31;;;;;;;18.40;11.13;;;;;;;-145.18;100.00;46654.53;5052769;28;20075;-67
2023/03/19 03:57:57;;;;;;;17.33;11.43;;;;;;;-145.18;100.00;46654.53;5051823;28;20040;-67
2023/03/19 04:00:23;;;;;;;17.70;11.23;;;;;;;-145.18;100.00;46656.50;5052504;28;20090;-67
2023/03/19 04:02:48;;;;;;;16.27;11.70;;;;;;;-145.18;100.00;46654.53;5052155;28;20061;-68
2023/03/19 04:05:14;;;;;;;20.30;11.97;;;;;;;-145.18;100.00;46654.53;5052309;28;20477;-68
2023/03/19 04:07:40;;;;;;;15.63;10.50;;;;;;;-145.18;100.00;46660.41;5052077;28;20032;-67
2023/03/19 04:10:06;;;;;;;17.97;11.10;;;;;;;-145.18;100.00;46652.59;5052288;28;20037;-67
2023/03/19 04:12:32;;;;;;;14.87;10.80;;;;;;;-145.18;100.00;46660.41;5051922;28;20049;-68
2023/03/19 04:14:57;;;;;;;16.13;10.00;;;;;;;-145.18;100.00;46656.50;5052145;28;20277;-68
2023/03/19 04:17:22;;;;;;;16.13;10.47;;;;;;;-145.18;100.00;46658.44;5051967;28;20051;-67
2023/03/19 04:19:48;;;;;;;16.33;9.30;;;;;;;-145.18;100.00;46662.34;5052031;28;20057;-67
2023/03/19 04:22:14;;;;;;;17.80;10.43;;;;;;;-145.18;100.00;46660.41;5051846;28;20041;-67
2023/03/19 04:24:40;;;;;;;16.13;10.37;;;;;;;-145.18;100.00;46654.53;5052226;28;20037;-68
2023/03/19 04:27:06;;;;;;;14.47;9.83;;;;;;;-145.18;100.00;46656.50;5051596;28;20269;-68
2023/03/19 04:29:31;;;;;;;15.70;9.80;;;;;;;-145.18;100.00;46654.53;5051782;28;20572;-68
2023/03/19 04:31:56;;;;;;;15.00;9.93;;;;;;;-145.18;100.00;46662.34;5051883;28;20638;-68
2023/03/19 04:34:22;;;;;;;15.07;9.00;;;;;;;-145.18;100.00;46660.41;5051629;28;20028;-68
2023/03/19 04:36:47;;;;;;;14.90;9.67;;;;;;;-145.18;100.00;46662.34;5051443;28;20552;-68
2023/03/19 04:39:13;;;;;;;13.13;9.00;;;;;;;-145.18;100.00;46658.44;5051500;28;20469;-68
2023/03/19 04:41:38;;;;;;;14.40;9.73;;;;;;;-145.18;100.00;46660.41;5051772;28;20037;-68
2023/03/19 04:44:04;;;;;;;12.10;8.57;;;;;;;-145.18;100.00;46664.31;5051282;28;20045;-68
2023/03/19 04:46:30;;;;;;;12.93;8.70;;;;;;;-145.18;100.00;46662.34;5033146;28;20477;-68
2023/03/19 04:48:55;;;;;;;12.97;8.93;;;;;;;-145.18;100.00;46660.41;5050944;28;20098;-68
2023/03/19 04:51:20;;;;;;;15.37;8.47;;;;;;;-145.18;100.00;46656.50;5051764;28;20071;-68
2023/03/19 04:53:46;;;;;;;13.60;8.50;;;;;;;-145.18;100.00;46658.44;5050955;28;20662;-68
2023/03/19 04:56:15;;;;;;;14.10;9.27;;;;;;;-145.18;100.00;46660.41;5051167;28;20049;-68
2023/03/19 04:58:41;;;;;;;16.03;10.27;;;;;;;-145.18;100.00;46656.50;5050871;28;20035;-68
2023/03/19 05:01:06;;;;;;;14.83;10.07;;;;;;;-145.18;100.00;46662.34;5051128;28;20285;-68
2023/03/19 05:03:31;;;;;;;17.33;10.17;;;;;;;-145.18;100.00;46650.63;5050782;28;20282;-68
2023/03/19 05:05:57;;;;;;;15.13;10.53;;;;;;;-145.18;100.00;46660.41;5050977;28;20070;-67
2023/03/19 05:08:22;;;;;;;18.23;11.27;;;;;;;-145.18;100.00;46658.44;5046507;28;20528;-68
2023/03/19 05:10:47;;;;;;;26.63;12.90;;;;;;;-145.18;100.00;46656.50;5050451;28;20074;-68
2023/03/19 05:13:13;;;;;;;20.27;12.93;;;;;;;-145.18;100.00;46658.44;5050578;28;20104;-67
2023/03/19 05:15:42;;;;;;;21.27;14.43;;;;;;;-145.18;100.00;46658.44;5050371;28;20045;-68
2023/03/19 05:18:07;;;;;;;25.90;15.43;;;;;;;-145.18;100.00;46654.53;5050082;28;20043;-68
2023/03/19 05:20:33;;;;;;;21.13;13.87;;;;;;;-145.18;100.00;46656.50;5050623;28;20707;-68
2023/03/19 05:22:58;;;;;;;21.07;14.20;;;;;;;-145.18;100.00;46656.50;5050244;28;20028;-68
2023/03/19 05:25:24;;;;;;;26.47;15.57;;;;;;;-145.18;100.00;46656.50;5050461;28;20107;-68
2023/03/19 05:27:49;;;;;;;24.37;15.10;;;;;;;-145.18;100.00;46656.50;5050100;28;20033;-66
2023/03/19 05:30:17;;;;;;;22.97;15.77;;;;;;;-145.18;100.00;46648.69;5050359;28;20507;-67
2023/03/19 05:32:43;;;;;;;24.73;16.07;;;;;;;-145.18;100.00;46654.53;5031412;28;20036;-68
2023/03/19 05:35:08;;;;;;;28.80;17.33;;;;;;;-145.18;100.00;46652.59;5059272;28;20274;-69
2023/03/19 05:37:34;;;;;;;23.70;16.27;;;;;;;-145.18;100.00;46656.50;5049500;28;20055;-67
2023/03/19 05:39:59;;;;;;;28.63;17.13;;;;;;;-145.18;100.00;46660.41;5032351;28;20029;-67
2023/03/19 05:42:25;;;;;;;28.27;17.23;;;;;;;-145.18;100.00;46654.53;5049220;28;20040;-69
2023/03/19 05:44:50;;;;;;;29.77;17.87;;;;;;;-145.18;100.00;46656.50;5049552;28;20051;-67
2023/03/19 05:47:16;;;;;;;31.10;18.23;;;;;;;-145.18;100.00;46658.44;5050046;28;20128;-69
2023/03/19 05:49:41;;;;;;;25.83;16.83;;;;;;;-145.18;100.00;46656.50;5031837;28;20411;-69
2023/03/19 05:52:07;;;;;;;28.07;16.77;;;;;;;-145.18;100.00;46654.53;5050243;28;20040;-69
2023/03/19 05:54:32;;;;;;;26.83;16.17;;;;;;;-145.18;100.00;46654.53;5050100;28;20032;-69
2023/03/19 05:56:58;;;;;;;26.47;16.93;;;;;;;-145.18;100.00;46658.44;5049597;28;20040;-69
2023/03/19 05:59:23;;;;;;;29.37;16.50;;;;;;;-145.18;100.00;46658.44;5049552;28;20033;-69
2023/03/19 06:01:49;;;;;;;24.70;15.97;;;;;;;-145.18;100.00;46654.53;5050003;28;20111;-69
2023/03/19 06:04:14;;;;;;;25.33;16.13;;;;;;;-145.18;100.00;46654.53;5031936;28;20057;-69
2023/03/19 06:06:40;;;;;;;23.30;15.50;;;;;;;-145.18;100.00;46656.50;5050150;28;20036;-69
2023/03/19 06:09:05;;;;;;;25.23;15.13;;;;;;;-145.18;100.00;46660.41;5049511;28;20047;-69
2023/03/19 06:11:31;;;;;;;24.60;16.50;;;;;;;-145.18;100.00;46658.44;5050252;28;20043;-69
2023/03/19 06:13:56;;;;;;;22.87;15.30;;;;;;;-145.18;100.00;46650.63;5049500;28;20041;-69
2023/03/19 06:16:22;;;;;;;26.53;15.70;;;;;;;-145.18;100.00;46650.63;5014758;28;20377;-69
2023/03/19 06:18:47;;;;;;;25.43;16.07;;;;;;;-145.18;100.00;46656.50;5049031;28;20044;-69
2023/03/19 06:21:12;;;;;;;27.27;15.67;;;;;;;-145.18;100.00;46656.50;5048447;28;20439;-69
2023/03/19 06:23:38;;;;;;;23.67;15.70;;;;;;;-145.18;100.00;46654.53;5045282;28;20041;-69
2023/03/19 06:26:04;;;;;;;25.13;16.20;;;;;;;-145.18;100.00;46654.53;5049549;28;20068;-69
2023/03/19 06:28:30;;;;;;;31.77;16.83;;;;;;;-145.18;100.00;46658.44;5049758;28;20029;-69
2023/03/19 06:30:56;;;;;;;25.77;17.33;;;;;;;-145.18;100.00;46660.41;5049695;28;20312;-69
2023/03/19 06:33:21;;;;;;;29.13;16.00;;;;;;;-145.18;100.00;46656.50;5048521;28;20036;-69
2023/03/19 06:35:47;;;;;;;22.83;16.13;;;;;;;-145.18;100.00;46652.59;5049290;28;20563;-69
2023/03/19 06:38:13;;;;;;;26.33;16.70;;;;;;;-145.18;100.00;46658.44;5048883;28;20589;-69
2023/03/19 06:40:38;;;;;;;29.13;17.30;;;;;;;-145.18;100.00;46654.53;5049612;28;20362;-69
2023/03/19 06:43:03;;;;;;;28.97;18.27;;;;;;;-145.18;100.00;46654.53;5048898;28;20059;-69
2023/03/19 06:45:29;;;;;;;29.43;19.83;;;;;;;-145.18;100.00;46658.44;5049564;28;20131;-69
2023/03/19 06:47:56;;;;;;;30.17;20.00;;;;;;;-145.18;100.00;46658.44;5037654;28;20017;-68
2023/03/19 06:50:21;;;;;;;31.83;19.83;;;;;;;-145.18;100.00;46652.59;5049044;28;20025;-68
2023/03/19 06:52:47;;;;;;;30.50;20.93;;;;;;;-145.18;100.00;46656.50;5030450;28;20575;-68
2023/03/19 06:55:12;;;;;;;34.07;21.00;;;;;;;-145.18;100.00;46656.50;5047804;28;20123;-68
2023/03/19 06:57:38;;;;;;;35.37;21.33;;;;;;;-145.18;100.00;46660.41;5061106;28;20414;-68
2023/03/19 07:00:04;;;;;;;38.87;25.43;;;;;;;-145.18;100.00;46660.41;5055006;28;20075;-68
2023/03/19 07:02:30;;;;;;;42.07;24.30;;;;;;;-145.18;100.00;46656.50;5028038;28;20050;-68
2023/03/19 07:04:55;;;;;;;39.67;24.27;;;;;;;-145.18;100.00;46658.44;5028829;28;20363;-67
2023/03/19 07:07:21;;;;;;;45.17;25.20;;;;;;;-145.18;100.00;46658.44;5029235;28;20037;-67
2023/03/19 07:09:46;;;;;;;46.37;25.53;;;;;;;-145.18;100.00;46656.50;5030952;28;20042;-67
2023/03/19 07:12:12;;;;;;;49.50;27.03;;;;;;;-145.18;100.00;46660.41;5033293;28;20037;-67
2023/03/19 07:14:37;;;;;;;52.50;26.93;;;;;;;-145.18;100.00;46654.53;5032378;28;20152;-67
2023/03/19 07:17:03;;;;;;;51.27;26.40;;;;;;;-145.18;100.00;46654.53;5032638;28;20096;-67
2023/03/19 07:19:28;;;;;;;54.50;25.97;;;;;;;-145.18;100.00;46654.53;5032634;28;20109;-67
2023/03/19 07:21:54;;;;;;;46.23;23.93;;;;;;;-145.18;100.00;46652.59;5032556;28;20033;-67
2023/03/19 07:24:19;;;;;;;45.23;25.97;;;;;;;-145.18;100.00;46658.44;5031409;28;20033;-67
2023/03/19 07:26:45;;;;;;;51.50;25.70;;;;;;;-145.18;100.00;46658.44;5032599;28;20032;-67
2023/03/19 07:29:10;;;;;;;44.60;24.97;;;;;;;-145.18;100.00;46658.44;5032272;28;20029;-69
2023/03/19 07:31:36;;;;;;;47.23;23.43;;;;;;;-145.18;100.00;46650.63;5032300;28;20029;-67
2023/03/19 07:34:01;;;;;;;48.63;25.83;;;;;;;-145.18;100.00;46658.44;5032261;28;20099;-67
2023/03/19 07:36:27;;;;;;;48.53;26.53;;;;;;;-145.18;100.00;46654.53;5032785;28;20068;-68
2023/03/19 07:38:52;;;;;;;45.53;23.73;;;;;;;-145.18;100.00;46652.59;5032307;28;20041;-67
2023/03/19 07:41:17;;;;;;;45.30;23.60;;;;;;;-145.18;100.00;46652.59;5032391;28;20060;-67
2023/03/19 07:43:43;;;;;;;47.40;24.97;;;;;;;-145.18;100.00;46652.59;5014162;28;20033;-67
2023/03/19 07:46:08;;;;;;;42.83;23.53;;;;;;;-145.18;100.00;46652.59;5032168;28;20120;-68
2023/03/19 07:48:34;;;;;;;49.57;25.00;;;;;;;-145.18;100.00;46650.63;5032061;28;20037;-67
2023/03/19 07:51:00;;;;;;;48.57;23.57;;;;;;;-145.18;100.00;46652.59;5031005;28;20032;-67
2023/03/19 07:53:26;;;;;;;40.80;24.10;;;;;;;-145.18;100.00;46650.63;5031672;28;20040;-67
2023/03/19 07:55:51;;;;;;;48.23;25.17;;;;;;;-145.18;100.00;46652.59;5030563;28;20037;-69
2023/03/19 07:58:17;;;;;;;44.10;23.17;;;;;;;-145.18;100.00;46652.59;5031274;28;20037;-69
2023/03/19 08:00:43;;;;;;;47.57;24.87;;;;;;;-145.18;100.00;46650.63;5031962;28;20060;-68
2023/03/19 08:03:09;;;;;;;40.57;22.30;;;;;;;-145.18;100.00;46650.63;5040157;28;20056;-68
2023/03/19 08:05:34;;;;;;;46.57;22.90;;;;;;;-145.18;100.00;46644.78;5052225;28;20277;-69
2023/03/19 08:08:00;;;;;;;41.47;22.40;;;;;;;-145.18;100.00;46650.63;5051136;28;20120;-68
2023/03/19 08:10:26;;;;;;;40.87;21.80;;;;;;;-145.18;100.00;46654.53;5051883;28;20036;-69
2023/03/19 08:12:51;;;;;;;41.30;20.50;;;;;;;-145.18;100.00;46648.69;5051499;28;20075;-69
2023/03/19 08:15:17;;;;;;;40.77;20.87;;;;;;;-145.18;100.00;46648.69;5051991;28;20055;-69
2023/03/19 08:17:42;;;;;;;44.23;21.67;;;;;;;-145.18;100.00;46648.69;5051928;28;20064;-68
2023/03/19 08:20:17;;;;;;;40.83;22.57;;;;;;;-145.18;100.00;46646.72;5050550;28;20045;-68
2023/03/19 08:22:42;;;;;;;35.70;18.73;;;;;;;-145.18;100.00;46646.72;5040939;28;20038;-68
2023/03/19 08:25:09;;;;;;;38.47;18.90;;;;;;;-145.18;100.00;46654.53;5031505;28;20404;-68
2023/03/19 08:27:35;;;;;;;40.33;21.30;;;;;;;-145.18;100.00;46646.72;5070710;28;20028;-69
2023/03/19 08:30:03;;;;;;;44.97;20.60;;;;;;;-145.18;100.00;46646.72;5069313;28;20293;-68
2023/03/19 08:32:28;;;;;;;46.63;21.97;;;;;;;-145.18;100.00;46652.59;5051421;28;20881;-67
2023/03/19 08:34:54;;;;;;;56.63;22.57;;;;;;;-145.18;100.00;46650.63;5051178;28;20281;-68
2023/03/19 08:37:20;;;;;;;49.57;21.63;;;;;;;-145.18;100.00;46650.63;5051160;28;20033;-69
2023/03/19 08:39:45;;;;;;;60.93;24.17;;;;;;;-145.18;100.00;46656.50;5051238;28;20040;-67
2023/03/19 08:42:11;;;;;;;60.13;23.77;;;;;;;-145.18;100.00;46654.53;5050890;28;20041;-69
2023/03/19 08:44:36;;;;;;;58.40;23.80;;;;;;;-145.18;100.00;46652.59;5051014;28;20138;-69
2023/03/19 08:47:02;;;;;;;59.27;22.80;;;;;;;-145.18;100.00;46652.59;5051187;28;20044;-69
2023/03/19 08:49:28;;;;;;;64.13;23.83;;;;;;;-145.18;100.00;46654.53;5031453;28;20536;-68
2023/03/19 08:51:53;;;;;;;60.70;23.93;;;;;;;-145.18;100.00;46656.50;5055924;28;20032;-67
2023/03/19 08:54:19;;;;;;;60.27;25.17;;;;;;;-145.18;100.00;46660.41;5070986;28;20106;-69
2023/03/19 08:56:45;;;;;;;63.67;24.43;;;;;;;-145.18;100.00;46656.50;5057284;28;20082;-69
2023/03/19 08:59:11;;;;;;;58.60;23.77;;;;;;;-145.18;100.00;46666.25;5050576;28;20516;-69
2023/03/19 09:01:36;;;;;;;57.47;23.57;;;;;;;-145.18;100.00;46656.50;5050326;28;20320;-70
2023/03/19 09:04:01;;;;;;;57.00;25.07;;;;;;;-145.18;100.00;46664.31;5050498;28;20059;-69
2023/03/19 09:06:27;;;;;;;52.63;23.07;;;;;;;-145.18;100.00;46664.31;5050506;28;20045;-69
2023/03/19 09:08:52;;;;;;;55.73;24.47;;;;;;;-145.18;100.00;46656.50;5050409;28;20037;-69
2023/03/19 09:11:18;;;;;;;54.50;23.67;;;;;;;-145.18;100.00;46668.22;5049690;28;20044;-69
2023/03/19 09:13:43;;;;;;;56.27;25.97;;;;;;;-145.18;100.00;46668.22;5047849;28;20072;-69
2023/03/19 09:16:09;;;;;;;49.83;22.43;;;;;;;-145.18;100.00;46668.22;5043968;28;20128;-69
2023/03/19 09:18:35;;;;;;;52.57;23.03;;;;;;;-145.18;100.00;46666.25;5043418;28;20466;-69
2023/03/19 09:21:01;;;;;;;52.47;24.47;;;;;;;-145.18;100.00;46670.16;5040194;28;20400;-69
2023/03/19 09:23:27;;;;;;;51.83;23.63;;;;;;;-145.18;100.00;46672.13;5043120;28;20120;-69
2023/03/19 09:25:52;;;;;;;45.90;21.63;;;;;;;-145.18;100.00;46676.03;5042526;28;20030;-69
2023/03/19 09:28:18;;;;;;;54.30;23.47;;;;;;;-145.18;100.00;46672.13;5041380;28;20283;-69
2023/03/19 09:30:48;;;;;;;50.43;23.37;;;;;;;-145.18;100.00;46674.06;5045289;28;20041;-69
2023/03/19 09:33:16;;;;;;;46.37;21.40;;;;;;;-145.18;100.00;46674.06;5030849;28;20494;-69
2023/03/19 09:35:42;;;;;;;37.40;18.97;;;;;;;-145.18;100.00;46676.03;5047394;28;20266;-69
2023/03/19 09:38:08;;;;;;;38.17;19.07;;;;;;;-145.18;100.00;46674.06;5051710;28;20309;-69
2023/03/19 09:40:46;;;;;;;43.60;19.33;;;;;;;-145.18;100.00;46679.94;5049698;28;20047;-69
2023/03/19 09:43:39;;;;;;;42.73;19.57;;;;;;;-145.18;100.00;46679.94;5030153;28;20082;-69
2023/03/19 09:46:20;;;;;;;40.50;19.97;;;;;;;-145.18;100.00;46681.88;5032597;28;21025;-68
2023/03/19 09:48:49;;;;;;;46.70;21.27;;;;;;;-145.18;100.00;46677.97;5049615;28;20345;-69
2023/03/19 09:51:24;;;;;;;43.40;21.07;;;;;;;-145.18;100.00;46677.97;5048830;28;21071;-68
2023/03/19 09:53:55;;;;;;;45.88;21.25;;;;;;;-145.18;100.00;46679.94;5045936;28;20306;-69
2023/03/19 09:56:21;;;;;;;42.13;19.30;;;;;;;-145.18;100.00;46679.94;5049877;28;20037;-68
2023/03/19 09:58:46;;;;;;;45.97;21.80;;;;;;;-145.18;100.00;46677.97;5048792;28;20882;-67
2023/03/19 10:01:36;;;;;;;48.73;22.60;;;;;;;-145.18;100.00;46677.97;5048840;28;20277;-67
2023/03/19 10:04:13;;;;;;;52.83;22.60;;;;;;;-145.18;100.00;46674.06;5033737;28;20049;-68
2023/03/19 10:06:39;;;;;;;46.03;20.60;;;;;;;-145.18;100.00;46679.94;5024107;28;20638;-68
2023/03/19 10:09:41;;;;;;;42.67;19.93;;;;;;;-145.18;100.00;46677.97;5066825;28;20276;-68
2023/03/19 10:12:32;;;;;;;44.07;21.77;;;;;;;-145.18;100.00;46674.06;5029696;28;20277;-67
2023/03/19 10:15:02;;;;;;;40.77;20.37;;;;;;;-145.18;100.00;46677.97;5047678;28;20258;-68
2023/03/19 10:17:37;;;;;;;35.23;18.80;;;;;;;-145.18;100.00;46677.97;5049423;28;20290;-67
2023/03/19 10:20:08;;;;;;;39.93;19.27;;;;;;;-145.18;100.00;46677.97;5049352;28;20319;-68
2023/03/19 10:22:54;;;;;;;31.17;18.03;;;;;;;-145.18;100.00;46676.03;5049910;28;20029;-67
2023/03/19 10:25:26;;;;;;;35.08;18.88;;;;;;;-145.18;100.00;46679.94;5049630;28;20087;-68
2023/03/19 10:28:00;;;;;;;40.77;18.87;;;;;;;-145.18;100.00;46681.88;5048419;28;20242;-67
2023/03/19 10:30:31;;;;;;;39.73;18.87;;;;;;;-145.18;100.00;46679.94;5049483;28;20371;-68
2023/03/19 10:33:26;;;;;;;37.07;18.93;;;;;;;-145.18;100.00;46683.84;5049247;28;20285;-67
2023/03/19 10:36:12;;;;;;;45.07;19.77;;;;;;;-145.18;100.00;46674.06;5034567;28;20290;-68
2023/03/19 10:38:42;;;;;;;37.83;19.00;;;;;;;-145.18;100.00;46672.13;5048793;28;20861;-67
2023/03/19 10:41:22;;;;;;;39.27;19.43;;;;;;;-145.18;100.00;46674.06;5049074;28;20037;-68
2023/03/19 10:43:53;;;;;;;46.83;22.60;;;;;;;-145.18;100.00;46668.22;5036292;28;20289;-68
2023/03/19 10:46:20;;;;;;;45.73;22.87;;;;;;;-145.18;100.00;46664.31;5035115;28;20611;-67
2023/03/19 10:48:46;;;;;;;45.77;23.10;;;;;;;-145.18;100.00;46670.16;5035838;28;20262;-67
2023/03/19 10:51:23;;;;;;;52.00;23.60;;;;;;;-145.18;100.00;46679.94;5052691;28;20041;-67
2023/03/19 10:53:52;;;;;;;51.57;23.87;;;;;;;-145.18;100.00;46677.97;5052271;28;20075;-67
2023/03/19 10:56:21;;;;;;;53.20;24.87;;;;;;;-145.18;100.00;46679.94;5052300;28;20289;-68